Time;durP1;ratioP1;P1;durP2;ratioP2;P2;SDS_P1;SDS_P2;PMS_P1;PMS_P2;Temp;Humidity;BMP_temperature;BMP_pressure;BME280_temperature;BME280_humidity;BME280_pressure;Samples;Min_cycle;Max_cycle;Signal;HPM_P1;HPM_P2
2024/03/30 00:00:59;;;;;;;27.30;16.80;;;;;;;8.67;100.00;97908.64;105791;1254;61618;-72
2024/03/30 00:03:42;;;;;;;25.50;17.30;;;;;;;8.65;100.00;97909.66;105491;1256;61411;-72
2024/03/30 00:06:08;;;;;;;24.60;16.00;;;;;;;8.65;100.00;97907.94;105515;1256;62100;-73
2024/03/30 00:08:35;;;;;;;29.00;16.00;;;;;;;8.62;100.00;97904.58;105395;1260;61387;-73
2024/03/30 00:11:04;;;;;;;21.40;14.70;;;;;;;8.59;100.00;97905.05;105553;1258;61462;-71
2024/03/30 00:13:31;;;;;;;27.90;14.80;;;;;;;8.47;100.00;97900.94;105626;1263;61583;-72
2024/03/30 00:15:57;;;;;;;28.80;15.70;;;;;;;8.38;100.00;97900.92;105585;1259;61270;-73
2024/03/30 00:18:24;;;;;;;25.30;16.10;;;;;;;8.31;100.00;97902.31;105561;1260;61264;-72
2024/03/30 00:20:50;;;;;;;27.00;16.70;;;;;;;8.22;100.00;97901.02;105570;1257;61239;-72
2024/03/30 00:23:16;;;;;;;26.40;15.50;;;;;;;8.18;100.00;97903.98;105624;1257;61436;-73
2024/03/30 00:25:56;;;;;;;24.30;16.50;;;;;;;8.19;100.00;97906.06;105796;1257;61341;-72
2024/03/30 00:28:23;;;;;;;25.30;16.10;;;;;;;8.17;100.00;97909.42;106090;1257;61436;-71
2024/03/30 00:30:50;;;;;;;31.00;19.20;;;;;;;8.16;100.00;97908.40;105592;1257;66729;-71
2024/03/30 00:33:17;;;;;;;24.80;18.30;;;;;;;8.15;100.00;97904.92;105515;1258;61130;-73
2024/03/30 00:35:47;;;;;;;32.40;22.70;;;;;;;8.13;100.00;97892.52;105703;1259;64652;-73
2024/03/30 00:38:14;;;;;;;35.80;23.60;;;;;;;8.10;100.00;97890.83;105764;1254;61357;-72
2024/03/30 00:40:40;;;;;;;39.80;24.70;;;;;;;8.06;100.00;97889.69;105576;1254;61348;-73
2024/03/30 00:43:07;;;;;;;35.70;24.00;;;;;;;8.03;100.00;97888.30;105727;1254;61254;-73
2024/03/30 00:45:37;;;;;;;30.90;19.30;;;;;;;7.99;100.00;97884.73;105758;1255;69080;-73
2024/03/30 00:48:05;;;;;;;48.00;32.20;;;;;;;7.95;100.00;97888.36;105773;1254;73249;-71
2024/03/30 00:50:31;;;;;;;54.80;34.80;;;;;;;7.92;100.00;97884.88;105737;1255;61231;-74
2024/03/30 00:52:58;;;;;;;50.70;32.20;;;;;;;7.89;100.00;97878.52;105787;1257;61297;-73
2024/03/30 00:55:24;;;;;;;33.10;23.60;;;;;;;7.87;100.00;97878.51;105754;1258;61330;-73
2024/03/30 00:57:50;;;;;;;33.60;21.80;;;;;;;7.84;100.00;97876.64;105695;1260;61398;-74
2024/03/30 01:00:17;;;;;;;30.70;20.80;;;;;;;7.78;100.00;97873.20;105739;1255;61242;-73
2024/03/30 01:02:44;;;;;;;35.90;23.50;;;;;;;7.73;100.00;97872.34;105710;1254;61298;-72
2024/03/30 01:05:11;;;;;;;33.30;21.90;;;;;;;7.67;100.00;97871.11;106098;1256;61457;-73
2024/03/30 01:07:37;;;;;;;34.60;22.50;;;;;;;7.64;100.00;97869.58;105748;1255;66142;-73
2024/03/30 01:10:06;;;;;;;34.20;23.90;;;;;;;7.62;100.00;97871.84;105797;1259;61271;-73
2024/03/30 01:12:33;;;;;;;34.80;24.10;;;;;;;7.60;100.00;97870.42;105504;1260;62650;-73
2024/03/30 01:15:00;;;;;;;33.90;21.70;;;;;;;7.58;100.00;97872.67;105764;1254;61251;-73
2024/03/30 01:17:27;;;;;;;31.20;21.70;;;;;;;7.58;100.00;97876.77;105785;1257;62912;-73
2024/03/30 01:19:54;;;;;;;35.70;23.00;;;;;;;7.57;100.00;97886.42;105755;1254;64598;-74
2024/03/30 01:22:20;;;;;;;40.30;25.20;;;;;;;7.55;100.00;97894.30;105783;1258;61158;-72
2024/03/30 01:24:47;;;;;;;47.80;31.10;;;;;;;7.54;100.00;97894.36;105794;1254;63756;-73
2024/03/30 01:27:26;;;;;;;45.70;30.50;;;;;;;7.55;100.00;97897.31;105766;1254;61221;-73
2024/03/30 01:29:56;;;;;;;41.30;29.50;;;;;;;7.58;100.00;97886.81;106011;1254;61220;-75
2024/03/30 01:32:24;;;;;;;;;;;;;;;7.63;100.00;97882.79;105751;1254;65443;-72
2024/03/30 01:34:50;;;;;;;30.90;22.90;;;;;;;7.65;100.00;97882.80;105742;1254;69478;-75
2024/03/30 01:37:17;;;;;;;38.40;25.90;;;;;;;7.66;100.00;97882.34;105774;1257;63704;-75
2024/03/30 01:39:44;;;;;;;41.40;26.40;;;;;;;7.67;100.00;97883.15;105758;1254;61244;-73
2024/03/30 01:42:10;;;;;;;35.90;25.90;;;;;;;7.68;100.00;97888.23;105761;1254;61219;-73
2024/03/30 01:44:36;;;;;;;39.30;26.20;;;;;;;7.64;100.00;97884.78;105747;1254;61385;-72
2024/03/30 01:47:03;;;;;;;44.30;30.40;;;;;;;7.60;100.00;97884.73;105542;1254;61347;-73
2024/03/30 01:49:30;;;;;;;44.80;30.30;;;;;;;7.54;100.00;97881.08;105750;1254;61401;-72
2024/03/30 01:51:59;;;;;;;49.40;30.20;;;;;;;7.52;100.00;97885.19;105747;1257;61261;-73
2024/03/30 01:54:26;;;;;;;43.10;29.30;;;;;;;7.49;100.00;97890.50;105766;1255;61295;-71
2024/03/30 01:56:54;;;;;;;37.40;28.00;;;;;;;7.46;100.00;97888.52;105742;1254;65618;-72
2024/03/30 01:59:20;;;;;;;41.90;28.60;;;;;;;7.44;100.00;97885.92;105763;1257;67695;-72
2024/03/30 02:01:47;;;;;;;45.90;29.70;;;;;;;7.40;100.00;97887.96;105763;1254;63548;-72
2024/03/30 02:04:15;;;;;;;45.30;31.20;;;;;;;7.35;100.00;97888.64;105554;1255;61318;-71
2024/03/30 02:06:43;;;;;;;41.70;29.10;;;;;;;7.32;100.00;97887.67;105787;1254;61366;-72
2024/03/30 02:09:11;;;;;;;41.60;31.30;;;;;;;7.30;100.00;97881.99;105793;1255;65327;-73
2024/03/30 02:11:40;;;;;;;38.00;31.10;;;;;;;7.29;100.00;97884.52;105723;1257;61362;-71
2024/03/30 02:14:07;;;;;;;42.20;29.40;;;;;;;7.26;100.00;97887.15;105752;1257;63561;-71
2024/03/30 02:16:36;;;;;;;39.30;30.20;;;;;;;7.23;100.00;97888.80;105729;1253;61353;-71
2024/03/30 02:19:04;;;;;;;38.80;29.70;;;;;;;7.19;100.00;97891.39;105886;1254;61353;-70
2024/03/30 02:21:31;;;;;;;40.20;28.80;;;;;;;7.15;100.00;97888.37;105507;1254;65678;-72
2024/03/30 02:23:58;;;;;;;44.30;31.30;;;;;;;7.09;100.00;97889.84;105765;1254;61299;-76
2024/03/30 02:26:24;;;;;;;46.30;31.50;;;;;;;7.05;100.00;97893.79;105753;1255;65410;-71
2024/03/30 02:28:52;;;;;;;43.70;30.40;;;;;;;7.03;100.00;97893.96;105782;1254;61257;-73
2024/03/30 02:31:19;;;;;;;40.60;30.40;;;;;;;7.00;100.00;97898.52;105744;1254;61241;-73
2024/03/30 02:33:46;;;;;;;44.00;33.10;;;;;;;6.97;100.00;97901.59;105831;1254;67557;-73
2024/03/30 02:36:15;;;;;;;41.40;30.20;;;;;;;6.94;100.00;97911.86;105837;1257;61360;-72
2024/03/30 02:38:41;;;;;;;42.80;30.50;;;;;;;6.92;100.00;97914.48;105745;1257;74484;-74
2024/03/30 02:41:08;;;;;;;37.80;31.10;;;;;;;6.90;100.00;97914.80;105824;1253;61250;-71
2024/03/30 02:43:34;;;;;;;39.70;30.70;;;;;;;6.88;100.00;97913.67;105616;1253;61417;-73
2024/03/30 02:46:01;;;;;;;43.10;31.30;;;;;;;6.86;100.00;97912.75;105825;1254;61264;-72
2024/03/30 02:48:27;;;;;;;48.20;38.50;;;;;;;6.84;100.00;97911.89;105784;1254;61305;-72
2024/03/30 02:50:53;;;;;;;46.10;34.60;;;;;;;6.84;100.00;97913.63;105808;1257;61459;-72
2024/03/30 02:53:20;;;;;;;38.60;30.30;;;;;;;6.84;100.00;97912.23;105734;1254;61282;-74
2024/03/30 02:55:46;;;;;;;37.50;32.50;;;;;;;6.81;100.00;97910.66;105501;1260;61376;-73
2024/03/30 02:58:12;;;;;;;41.00;32.60;;;;;;;6.79;100.00;97909.02;105782;1255;61355;-72
2024/03/30 03:00:39;;;;;;;42.20;33.40;;;;;;;6.78;100.00;97909.77;105776;1256;61359;-73
2024/03/30 03:03:05;;;;;;;41.10;31.50;;;;;;;6.79;100.00;97908.84;105752;1254;61272;-74
2024/03/30 03:05:32;;;;;;;44.80;32.20;;;;;;;6.74;100.00;97909.54;105671;1257;61347;-72
2024/03/30 03:07:58;;;;;;;38.60;32.00;;;;;;;6.70;100.00;97912.84;105699;1253;62844;-74
2024/03/30 03:10:25;;;;;;;40.30;31.50;;;;;;;6.67;100.00;97913.20;105769;1257;61289;-72
2024/03/30 03:12:51;;;;;;;38.50;30.10;;;;;;;6.66;100.00;97916.84;105754;1257;62147;-73
2024/03/30 03:15:17;;;;;;;38.60;32.00;;;;;;;6.64;100.00;97915.17;105707;1254;61272;-73
2024/03/30 03:17:44;;;;;;;41.30;31.90;;;;;;;6.61;100.00;97915.52;105770;1254;61330;-73
2024/03/30 03:20:10;;;;;;;39.50;33.70;;;;;;;6.58;100.00;97912.77;105761;1254;61381;-72
2024/03/30 03:22:37;;;;;;;41.90;33.80;;;;;;;6.53;100.00;97904.27;105700;1253;61251;-73
2024/03/30 03:25:04;;;;;;;79.90;70.80;;;;;;;6.48;100.00;97902.29;105749;1254;61251;-72
2024/03/30 03:27:31;;;;;;;57.70;51.40;;;;;;;6.45;100.00;97905.90;105731;1254;61664;-73
2024/03/30 03:29:57;;;;;;;50.00;38.50;;;;;;;6.40;100.00;97911.17;105702;1257;61296;-74
2024/03/30 03:32:25;;;;;;;45.00;37.80;;;;;;;6.34;100.00;97908.89;105620;1260;61315;-73
2024/03/30 03:34:51;;;;;;;42.30;34.20;;;;;;;6.30;100.00;97906.52;105794;1257;66739;-72
2024/03/30 03:37:18;;;;;;;41.40;32.40;;;;;;;6.27;100.00;97906.90;105632;1260;61795;-75
2024/03/30 03:39:44;;;;;;;40.60;32.60;;;;;;;6.25;100.00;97904.79;106180;1259;61373;-72
2024/03/30 03:42:10;;;;;;;41.10;30.30;;;;;;;6.23;100.00;97905.05;106042;1254;61327;-72
2024/03/30 03:44:37;;;;;;;41.30;32.60;;;;;;;6.21;100.00;97910.31;105731;1254;61410;-72
2024/03/30 03:47:03;;;;;;;38.10;30.30;;;;;;;6.20;100.00;97911.30;105720;1257;61325;-73
2024/03/30 03:49:29;;;;;;;39.40;30.40;;;;;;;6.17;100.00;97911.48;105758;1254;61347;-71
2024/03/30 03:51:57;;;;;;;39.10;30.20;;;;;;;6.14;100.00;97913.95;105765;1257;61343;-73
2024/03/30 03:54:23;;;;;;;38.10;30.90;;;;;;;6.13;100.00;97916.63;105601;1254;61282;-73
2024/03/30 03:56:49;;;;;;;37.50;29.80;;;;;;;6.13;100.00;97921.08;105762;1257;61465;-72
2024/03/30 03:59:16;;;;;;;39.80;28.60;;;;;;;6.11;100.00;97921.18;105723;1253;61357;-72
2024/03/30 04:01:42;;;;;;;41.30;29.70;;;;;;;6.09;100.00;97921.33;105566;1257;61447;-73
2024/03/30 04:04:08;;;;;;;35.90;30.00;;;;;;;6.04;100.00;97927.98;105566;1259;61391;-73
2024/03/30 04:06:35;;;;;;;37.90;29.40;;;;;;;6.01;100.00;97931.73;105546;1259;61368;-71
2024/03/30 04:09:03;;;;;;;40.40;30.30;;;;;;;5.98;100.00;97929.27;105520;1259;61293;-71
2024/03/30 04:11:30;;;;;;;39.10;29.50;;;;;;;5.97;100.00;97931.98;105532;1260;66966;-73
2024/03/30 04:13:58;;;;;;;37.00;29.50;;;;;;;5.94;100.00;97930.07;105439;1257;61469;-73
2024/03/30 04:16:24;;;;;;;44.10;31.00;;;;;;;5.88;100.00;97926.34;105547;1257;64609;-72
2024/03/30 04:18:52;;;;;;;39.00;31.70;;;;;;;5.85;100.00;97924.98;105531;1257;61433;-72
2024/03/30 04:21:19;;;;;;;36.80;32.40;;;;;;;5.80;100.00;97928.31;105527;1257;61251;-72
2024/03/30 04:23:49;;;;;;;52.20;44.20;;;;;;;5.77;100.00;97927.10;105582;1256;66376;-72
2024/03/30 04:26:15;;;;;;;48.10;41.50;;;;;;;5.77;100.00;97932.21;105934;1256;61499;-72
2024/03/30 04:28:42;;;;;;;52.20;46.50;;;;;;;5.75;100.00;97931.95;105433;1260;62649;-72
2024/03/30 04:31:10;;;;;;;53.60;45.40;;;;;;;5.72;100.00;97924.39;105576;1257;61315;-73
2024/03/30 04:33:36;;;;;;;44.30;37.50;;;;;;;5.72;100.00;97927.77;105704;1260;61155;-73
2024/03/30 04:36:06;;;;;;;43.90;35.40;;;;;;;5.71;100.00;97933.27;104980;1254;1003731;-74
2024/03/30 04:38:34;;;;;;;40.70;32.20;;;;;;;5.71;100.00;97935.20;105802;1253;61261;-72
2024/03/30 04:41:08;;;;;;;40.50;32.00;;;;;;;5.73;100.00;97933.51;105743;1254;62646;-74
2024/03/30 04:43:36;;;;;;;44.40;33.40;;;;;;;5.74;100.00;97934.17;105690;1254;61290;-71
2024/03/30 04:46:04;;;;;;;42.10;32.60;;;;;;;5.76;100.00;97938.44;105468;1254;61339;-73
2024/03/30 04:48:31;;;;;;;42.10;34.80;;;;;;;5.81;100.00;97940.89;105742;1257;66685;-72
2024/03/30 04:51:02;;;;;;;52.10;43.70;;;;;;;6.05;100.00;97946.78;105451;1262;61290;-73
2024/03/30 04:53:30;;;;;;;57.70;47.70;;;;;;;6.21;100.00;97945.77;105780;1253;64046;-72
2024/03/30 04:55:58;;;;;;;48.30;40.20;;;;;;;6.51;100.00;97937.26;105733;1254;61261;-72
2024/03/30 04:58:26;;;;;;;50.10;40.10;;;;;;;6.91;100.00;97932.89;105740;1254;61289;-72
2024/03/30 05:00:59;;;;;;;46.50;36.10;;;;;;;7.31;100.00;97930.34;105702;1259;66135;-72
2024/03/30 05:03:25;;;;;;;42.20;35.60;;;;;;;7.67;100.00;97935.85;105689;1254;61225;-74
2024/03/30 05:05:52;;;;;;;37.00;33.00;;;;;;;7.99;100.00;97934.27;105730;1254;61312;-73
2024/03/30 05:08:18;;;;;;;36.50;31.20;;;;;;;8.32;100.00;97938.71;105699;1257;61378;-72
2024/03/30 05:10:45;;;;;;;34.20;30.60;;;;;;;8.70;100.00;97940.45;105650;1257;61295;-72
2024/03/30 05:13:12;;;;;;;38.60;29.40;;;;;;;9.01;100.00;97936.67;105776;1254;66805;-74
2024/03/30 05:15:40;;;;;;;31.40;28.00;;;;;;;9.31;100.00;97932.70;105753;1257;61323;-74
2024/03/30 05:18:12;;;;;;;32.90;25.80;;;;;;;9.65;100.00;97927.86;106050;1254;63878;-72
2024/03/30 05:20:49;;;;;;;29.10;24.60;;;;;;;9.93;100.00;97929.36;105735;1257;61237;-72
2024/03/30 05:23:17;;;;;;;32.50;25.20;;;;;;;10.21;100.00;97932.97;105699;1253;61360;-71
2024/03/30 05:25:44;;;;;;;30.30;24.80;;;;;;;10.48;100.00;97927.36;105711;1254;66360;-74
2024/03/30 05:28:11;;;;;;;26.40;23.00;;;;;;;10.73;100.00;97919.19;105347;1254;135840;-72
2024/03/30 05:30:39;;;;;;;27.80;22.90;;;;;;;11.03;100.00;97918.63;105425;1257;63348;-72
2024/03/30 05:33:05;;;;;;;26.20;23.30;;;;;;;11.30;100.00;97920.20;105573;1259;61425;-73
2024/03/30 05:35:32;;;;;;;25.70;22.00;;;;;;;11.54;100.00;97921.26;105735;1254;61299;-72
2024/03/30 05:37:58;;;;;;;27.70;23.10;;;;;;;11.79;100.00;97917.31;105733;1254;61241;-73
2024/03/30 05:40:25;;;;;;;29.20;24.90;;;;;;;12.06;100.00;97914.19;105767;1254;61347;-74
2024/03/30 05:42:51;;;;;;;30.20;24.90;;;;;;;12.35;100.00;97914.59;105740;1253;61237;-74
2024/03/30 05:45:18;;;;;;;26.40;22.30;;;;;;;12.63;100.00;97911.80;105707;1256;61334;-73
2024/03/30 05:47:44;;;;;;;27.10;23.20;;;;;;;12.88;100.00;97909.69;105734;1257;61110;-75
2024/03/30 05:50:11;;;;;;;28.40;23.70;;;;;;;13.15;100.00;97905.86;105742;1257;61254;-75
2024/03/30 05:52:37;;;;;;;28.40;21.50;;;;;;;13.43;100.00;97900.42;105771;1253;61303;-73
2024/03/30 05:55:04;;;;;;;24.80;21.70;;;;;;;13.66;100.00;97901.41;105726;1257;61296;-74
2024/03/30 05:57:30;;;;;;;29.00;22.80;;;;;;;13.84;100.00;97908.59;105733;1253;61258;-73
2024/03/30 05:59:57;;;;;;;25.00;19.90;;;;;;;13.92;100.00;97908.85;105690;1254;61266;-75
2024/03/30 06:02:24;;;;;;;27.30;18.60;;;;;;;13.92;100.00;97911.23;105725;1253;61379;-74
2024/03/30 06:04:51;;;;;;;24.90;17.40;;;;;;;13.98;100.00;97909.37;105708;1254;61237;-73
2024/03/30 06:07:17;;;;;;;24.50;17.10;;;;;;;14.01;100.00;97908.84;105699;1256;64341;-73
2024/03/30 06:09:44;;;;;;;26.30;19.20;;;;;;;14.01;100.00;97904.52;105707;1257;61330;-73
2024/03/30 06:12:10;;;;;;;24.40;15.30;;;;;;;14.01;100.00;97903.33;105448;1253;61309;-74
2024/03/30 06:14:36;;;;;;;21.30;14.00;;;;;;;14.23;100.00;97903.48;105761;1253;61250;-75
2024/03/30 06:17:03;;;;;;;23.10;14.20;;;;;;;14.22;100.00;97907.13;105688;1254;61350;-73
2024/03/30 06:19:29;;;;;;;22.80;12.30;;;;;;;14.17;100.00;97908.73;105706;1257;61334;-77
2024/03/30 06:21:55;;;;;;;18.30;10.60;;;;;;;14.23;100.00;97908.86;105666;1253;61362;-74
2024/03/30 06:24:22;;;;;;;19.10;11.60;;;;;;;14.39;100.00;97904.59;105706;1254;61296;-73
2024/03/30 06:26:48;;;;;;;23.00;11.50;;;;;;;14.48;100.00;97900.63;105673;1253;61420;-74
2024/03/30 06:29:14;;;;;;;24.40;11.80;;;;;;;14.56;100.00;97901.42;105708;1254;61273;-75
2024/03/30 06:31:41;;;;;;;22.70;12.00;;;;;;;14.56;100.00;97902.39;105651;1254;61305;-74
2024/03/30 06:34:07;;;;;;;24.10;12.80;;;;;;;14.53;100.00;97906.58;105691;1257;61287;-75
2024/03/30 06:36:34;;;;;;;24.00;12.80;;;;;;;14.54;100.00;97910.48;105716;1257;61333;-74
2024/03/30 06:39:00;;;;;;;24.40;12.30;;;;;;;14.49;100.00;97909.11;105738;1256;61226;-74
2024/03/30 06:44:12;;;;;;;24.50;14.30;;;;;;;14.38;100.00;97914.11;105734;1253;64678;-73
2024/03/30 06:46:38;;;;;;;24.80;13.70;;;;;;;14.37;100.00;97917.04;105700;1253;61446;-74
2024/03/30 06:49:04;;;;;;;29.60;15.10;;;;;;;14.41;100.00;97921.53;105824;1257;61354;-74
2024/03/30 06:51:31;;;;;;;23.80;13.30;;;;;;;14.47;100.00;97923.63;105852;1253;61343;-77
2024/03/30 06:53:58;;;;;;;19.00;12.40;;;;;;;14.57;100.00;97921.94;105613;1253;61380;-74
2024/03/30 06:56:24;;;;;;;29.40;11.80;;;;;;;14.71;100.00;97921.91;105820;1255;61238;-73
2024/03/30 06:58:50;;;;;;;24.30;11.40;;;;;;;14.85;100.00;97929.42;105864;1253;61272;-74
2024/03/30 07:01:17;;;;;;;25.60;10.80;;;;;;;14.98;100.00;97930.80;105870;1253;61353;-77
2024/03/30 07:03:43;;;;;;;25.10;9.10;;;;;;;15.12;100.00;97929.34;105811;1253;61318;-75
2024/03/30 07:06:10;;;;;;;20.70;9.50;;;;;;;15.28;100.00;97931.85;105794;1257;61356;-75
2024/03/30 07:08:37;;;;;;;31.70;10.60;;;;;;;15.41;100.00;97929.75;105836;1256;61365;-74
2024/03/30 07:11:03;;;;;;;25.50;10.70;;;;;;;15.54;100.00;97926.83;105837;1253;61231;-74
2024/03/30 07:13:30;;;;;;;30.90;9.20;;;;;;;15.68;100.00;97924.96;105662;1254;61327;-78
2024/03/30 07:15:56;;;;;;;27.40;8.80;;;;;;;15.82;100.00;97921.81;105864;1254;61339;-75
2024/03/30 07:18:23;;;;;;;24.60;7.80;;;;;;;15.93;100.00;97918.07;105774;1254;61248;-73
2024/03/30 07:20:50;;;;;;;29.00;8.40;;;;;;;16.08;100.00;97921.88;105858;1254;61426;-75
2024/03/30 07:23:17;;;;;;;31.00;8.20;;;;;;;16.24;100.00;97928.06;105839;1256;61288;-73
2024/03/30 07:25:44;;;;;;;24.70;8.60;;;;;;;16.39;100.00;97930.71;105638;1253;61223;-74
2024/03/30 07:28:10;;;;;;;22.70;7.10;;;;;;;16.55;100.00;97934.73;105857;1254;66316;-73
2024/03/30 07:30:38;;;;;;;22.80;7.30;;;;;;;16.73;100.00;97939.46;105835;1253;61385;-77
2024/03/30 07:33:05;;;;;;;26.90;6.90;;;;;;;16.90;100.00;97940.33;105984;1256;63315;-78
2024/03/30 07:35:32;;;;;;;26.40;6.90;;;;;;;17.05;100.00;97943.23;105455;1261;61238;-72
2024/03/30 07:38:02;;;;;;;29.40;6.60;;;;;;;17.20;100.00;97943.63;105432;1256;61479;-74
2024/03/30 07:40:29;;;;;;;25.80;7.00;;;;;;;17.34;100.00;97944.95;105445;1261;65975;-76
2024/03/30 07:42:55;;;;;;;28.50;5.70;;;;;;;17.45;100.00;97943.82;105452;1260;61505;-72
2024/03/30 07:45:22;;;;;;;24.60;6.00;;;;;;;17.57;100.00;97938.36;105496;1260;61531;-76
2024/03/30 07:47:49;;;;;;;30.60;7.00;;;;;;;17.72;100.00;97937.61;105417;1258;61341;-75
2024/03/30 07:50:16;;;;;;;39.50;7.10;;;;;;;17.86;100.00;97942.16;105441;1256;61549;-76
2024/03/30 07:52:45;;;;;;;25.80;4.90;;;;;;;17.98;100.00;97944.00;105439;1258;66503;-75
2024/03/30 07:55:12;;;;;;;28.90;5.80;;;;;;;18.10;100.00;97943.77;105470;1256;61483;-73
2024/03/30 07:57:38;;;;;;;28.70;6.60;;;;;;;18.24;100.00;97948.76;105521;1257;64841;-74
2024/03/30 08:00:05;;;;;;;35.20;6.60;;;;;;;18.38;100.00;97949.45;105485;1260;61271;-76
2024/03/30 08:02:32;;;;;;;29.00;5.90;;;;;;;18.50;99.83;97951.83;105509;1256;61391;-76
2024/03/30 08:04:58;;;;;;;29.70;6.70;;;;;;;18.64;99.10;97950.63;105660;1257;61432;-75
2024/03/30 08:07:24;;;;;;;30.40;5.10;;;;;;;18.77;98.10;97949.98;105701;1254;61270;-76
2024/03/30 08:09:51;;;;;;;26.80;5.50;;;;;;;18.90;97.35;97949.90;105827;1256;61276;-77
2024/03/30 08:12:17;;;;;;;28.70;6.30;;;;;;;19.05;96.41;97947.80;105806;1253;61351;-74
2024/03/30 08:14:44;;;;;;;38.10;7.20;;;;;;;19.19;94.79;97944.70;105831;1253;61386;-74
2024/03/30 08:17:10;;;;;;;38.50;8.30;;;;;;;19.30;93.39;97943.85;109479;1253;58960;-74
2024/03/30 08:19:37;;;;;;;30.00;6.40;;;;;;;19.40;92.18;97945.05;109561;1252;59037;-75
2024/03/30 08:22:03;;;;;;;35.00;5.80;;;;;;;19.53;91.83;97945.15;109209;1253;59372;-73
2024/03/30 08:24:31;;;;;;;32.90;6.30;;;;;;;19.65;90.73;97941.77;109474;1253;59055;-74
2024/03/30 08:26:58;;;;;;;37.50;6.80;;;;;;;19.78;89.89;97937.39;109484;1253;59216;-74
2024/03/30 08:29:24;;;;;;;40.40;6.50;;;;;;;19.90;89.01;97943.25;109495;1252;64617;-75
2024/03/30 08:31:51;;;;;;;32.10;7.10;;;;;;;20.02;88.87;97952.48;109404;1252;59049;-73
2024/03/30 08:34:17;;;;;;;35.70;6.80;;;;;;;20.14;87.72;97951.71;109504;1253;59005;-76
2024/03/30 08:36:43;;;;;;;36.90;6.90;;;;;;;20.27;87.08;97946.20;109437;1253;59015;-76
2024/03/30 08:39:10;;;;;;;36.30;7.50;;;;;;;20.39;86.34;97942.35;109520;1253;59179;-74
2024/03/30 08:41:36;;;;;;;36.20;6.40;;;;;;;20.47;85.50;97940.77;109519;1253;59018;-75
2024/03/30 08:44:04;;;;;;;44.00;8.10;;;;;;;20.58;85.32;97939.63;109564;1252;59056;-75
2024/03/30 08:46:31;;;;;;;32.70;7.70;;;;;;;20.69;84.31;97934.66;109461;1252;62880;-74
2024/03/30 08:49:05;;;;;;;47.60;9.00;;;;;;;20.77;82.07;97937.95;109469;1252;58985;-74
2024/03/30 08:51:32;;;;;;;33.80;7.40;;;;;;;20.87;81.41;97937.62;109291;1253;59947;-73
2024/03/30 08:54:05;;;;;;;41.50;8.30;;;;;;;20.98;80.70;97934.05;109511;1252;65961;-79
2024/03/30 08:56:33;;;;;;;35.50;8.00;;;;;;;21.10;80.55;97927.86;109506;1253;60010;-75
2024/03/30 08:58:59;;;;;;;40.80;8.10;;;;;;;21.23;79.51;97926.71;109454;1253;64835;-73
2024/03/30 09:01:28;;;;;;;44.80;9.30;;;;;;;21.32;78.06;97924.20;109472;1252;59301;-73
2024/03/30 09:03:55;;;;;;;34.40;7.70;;;;;;;21.37;76.53;97926.95;109473;1253;58993;-73
2024/03/30 09:06:21;;;;;;;37.30;8.50;;;;;;;21.40;75.92;97932.59;109466;1252;66093;-73
2024/03/30 09:08:48;;;;;;;52.10;9.20;;;;;;;21.48;75.77;97929.05;109499;1253;60117;-73
2024/03/30 09:11:14;;;;;;;47.70;8.70;;;;;;;21.57;75.15;97928.61;109434;1252;59205;-73
2024/03/30 09:13:41;;;;;;;44.30;7.90;;;;;;;21.64;73.84;97932.99;109491;1253;59112;-73
2024/03/30 09:16:08;;;;;;;44.20;8.60;;;;;;;21.70;73.44;97929.10;109202;1252;59269;-74
2024/03/30 09:18:34;;;;;;;42.60;9.90;;;;;;;21.75;72.36;97927.22;109468;1253;64482;-72
2024/03/30 09:21:04;;;;;;;43.80;8.50;;;;;;;21.77;71.76;97929.85;109530;1252;58976;-72
2024/03/30 09:23:31;;;;;;;46.80;10.50;;;;;;;21.83;71.07;97931.02;109473;1253;63779;-73
2024/03/30 09:25:57;;;;;;;39.40;9.20;;;;;;;21.92;71.46;97933.31;109466;1252;59234;-72
2024/03/30 09:28:24;;;;;;;44.00;8.80;;;;;;;22.07;72.11;97926.07;109515;1253;59368;-74
2024/03/30 09:30:50;;;;;;;50.20;9.10;;;;;;;22.23;72.06;97927.29;109488;1253;59062;-73
2024/03/30 09:33:16;;;;;;;47.40;8.60;;;;;;;22.37;71.37;97930.09;109497;1253;58924;-72
2024/03/30 09:35:43;;;;;;;49.80;10.60;;;;;;;22.51;70.30;97927.13;109482;1253;59098;-72
2024/03/30 09:38:09;;;;;;;54.30;10.10;;;;;;;22.63;69.34;97919.80;109496;1252;58945;-72
2024/03/30 09:40:36;;;;;;;46.70;10.70;;;;;;;22.77;69.52;97920.45;109487;1252;59156;-73
2024/03/30 09:43:02;;;;;;;43.30;9.40;;;;;;;22.98;69.44;97923.03;109503;1253;59032;-73
2024/03/30 09:45:29;;;;;;;48.40;10.50;;;;;;;23.19;68.96;97921.25;109497;1253;59369;-73
2024/03/30 09:47:59;;;;;;;49.70;8.70;;;;;;;23.40;68.30;97923.25;109526;1252;59357;-73
2024/03/30 09:50:26;;;;;;;49.80;10.40;;;;;;;23.54;65.98;97921.42;109472;1253;59314;-73
2024/03/30 09:52:54;;;;;;;49.10;10.20;;;;;;;23.52;63.39;97922.73;109474;1252;59371;-72
2024/03/30 09:55:24;;;;;;;57.50;10.20;;;;;;;23.47;62.71;97923.73;109438;1253;65859;-75
2024/03/30 09:57:52;;;;;;;57.50;11.70;;;;;;;23.45;63.08;97920.10;109509;1252;60183;-83
2024/03/30 10:00:19;;;;;;;46.20;11.40;;;;;;;23.46;62.41;97913.48;109479;1253;64112;-72
2024/03/30 10:02:46;;;;;;;46.30;8.90;;;;;;;23.60;60.92;97911.50;109502;1252;58990;-74
2024/03/30 10:05:14;;;;;;;58.20;9.50;;;;;;;23.64;57.62;97911.20;109509;1252;59156;-73
2024/03/30 10:07:53;;;;;;;50.40;10.30;;;;;;;23.69;56.68;97910.17;109355;1252;65804;-75
2024/03/30 10:10:21;;;;;;;60.00;8.40;;;;;;;23.75;55.77;97904.04;109505;1253;60349;-73
2024/03/30 10:12:56;;;;;;;48.90;11.10;;;;;;;23.85;55.55;97903.25;109464;1253;62503;-71
2024/03/30 10:15:52;;;;;;;49.70;9.70;;;;;;;23.96;54.27;97901.52;109352;1252;59032;-72
2024/03/30 10:18:19;;;;;;;48.10;8.90;;;;;;;23.96;54.33;97898.15;109478;1253;61330;-72
2024/03/30 10:20:45;;;;;;;57.60;10.00;;;;;;;23.97;54.27;97889.06;109189;1253;64679;-73
2024/03/30 10:23:13;;;;;;;40.50;8.50;;;;;;;23.99;54.38;97886.71;109519;1252;59016;-73
2024/03/30 10:25:53;;;;;;;39.40;7.80;;;;;;;24.03;53.87;97882.88;109433;1253;64079;-72
2024/03/30 10:28:21;;;;;;;44.50;10.80;;;;;;;24.10;50.74;97880.34;109425;1253;58989;-72
2024/03/30 10:30:48;;;;;;;51.00;9.80;;;;;;;24.26;51.37;97877.20;109449;1253;58894;-73
2024/03/30 10:33:18;;;;;;;39.80;9.80;;;;;;;24.45;50.86;97876.35;109447;1253;64907;-72
2024/03/30 10:35:45;;;;;;;36.30;7.90;;;;;;;24.66;51.65;97871.30;109476;1253;58969;-73
2024/03/30 10:38:12;;;;;;;45.90;8.20;;;;;;;24.84;50.12;97872.29;109485;1252;62532;-74
2024/03/30 10:40:39;;;;;;;45.40;7.80;;;;;;;24.91;49.54;97873.63;109372;1252;58963;-73
2024/03/30 10:43:07;;;;;;;43.40;10.30;;;;;;;25.01;45.50;97872.14;109518;1252;59230;-74
2024/03/30 10:45:34;;;;;;;35.60;7.90;;;;;;;25.01;44.63;97866.31;109488;1253;65942;-75
2024/03/30 10:48:00;;;;;;;24.30;5.10;;;;;;;25.01;43.61;97868.45;109501;1253;58971;-73
2024/03/30 10:50:27;;;;;;;43.70;7.40;;;;;;;24.87;42.45;97864.29;109489;1252;59206;-73
2024/03/30 10:52:53;;;;;;;38.10;6.60;;;;;;;24.79;41.70;97863.80;109458;1252;58935;-74
2024/03/30 10:55:22;;;;;;;32.70;7.70;;;;;;;24.70;42.40;97863.83;109489;1252;59308;-73
2024/03/30 10:57:53;;;;;;;45.60;9.20;;;;;;;24.71;42.24;97864.79;109467;1253;66339;-73
2024/03/30 11:00:20;;;;;;;33.30;7.40;;;;;;;24.81;41.81;97867.44;109458;1252;60253;-73
2024/03/30 11:02:48;;;;;;;32.70;7.70;;;;;;;24.92;42.15;97866.08;109473;1253;64163;-73
2024/03/30 11:05:14;;;;;;;32.30;6.30;;;;;;;25.04;42.24;97867.16;109491;1253;58997;-73
2024/03/30 11:07:41;;;;;;;34.10;6.90;;;;;;;25.10;42.09;97871.55;109511;1252;59038;-73
2024/03/30 11:10:07;;;;;;;36.20;7.80;;;;;;;25.21;42.31;97868.50;109500;1253;64914;-73
2024/03/30 11:12:36;;;;;;;32.40;7.10;;;;;;;25.26;39.53;97870.39;109492;1253;59124;-72